Time;durP1;ratioP1;P1;durP2;ratioP2;P2;SDS_P1;SDS_P2;PMS_P1;PMS_P2;Temp;Humidity;BMP_temperature;BMP_pressure;BME280_temperature;BME280_humidity;BME280_pressure;Samples;Min_cycle;Max_cycle;Signal;HPM_P1;HPM_P2
2022/03/17 00:00:40;;;;;;;;;;;;;;;;;;4361876;32;19949;-82
2022/03/17 00:03:05;;;;;;;;;;;;;;;;;;4375524;32;20295;-82
2022/03/17 00:05:30;;;;;;;;;;;;;;;;;;4377655;32;19933;-84
2022/03/17 00:07:55;;;;;;;;;;;;;;;;;;4390427;32;19977;-83
2022/03/17 00:10:20;;;;;;;;;;;;;;;;;;4390754;32;20311;-83
2022/03/17 00:12:45;;;;;;;;;;;;;;;;;;4388665;32;20020;-83
2022/03/17 00:15:11;;;;;;;;;;;;;;;;;;4375126;32;19972;-83
2022/03/17 00:17:37;;;;;;;;;;;;;;;;;;4373835;32;20061;-82
2022/03/17 00:20:02;;;;;;;;;;;;;;;;;;4374007;32;20323;-82
2022/03/17 00:22:27;;;;;;;;;;;;;;;;;;4374409;32;19934;-82
2022/03/17 00:24:54;;;;;;;;;;;;;;;;;;4377949;32;19934;-83
2022/03/17 00:27:19;;;;;;;;;;;;;;;;;;4396819;32;19951;-84
2022/03/17 00:29:46;;;;;;;;;;;;;;;;;;4403810;32;19981;-82
2022/03/17 00:32:11;;;;;;;;;;;;;;;;;;4390743;32;19938;-83
2022/03/17 00:37:20;;;;;;;;;;;;;;;;;;4389033;32;19941;-82
2022/03/17 00:39:45;;;;;;;;;;;;;;;;;;4373674;32;19970;-84
2022/03/17 00:42:10;;;;;;;;;;;;;;;;;;4374875;32;19938;-82
2022/03/17 00:44:35;;;;;;;;;;;;;;;;;;4373915;32;19950;-83
2022/03/17 00:47:01;;;;;;;;;;;;;;;;;;4361757;32;19938;-83
2022/03/17 00:49:26;;;;;;;;;;;;;;;;;;4371747;32;19956;-83
2022/03/17 00:51:51;;;;;;;;;;;;;;;;;;4385901;32;20359;-83
2022/03/17 00:54:16;;;;;;;;;;;;;;;;;;4372786;32;19938;-84
2022/03/17 00:56:41;;;;;;;;;;;;;;;;;;4368783;32;20068;-84
2022/03/17 00:59:07;;;;;;;;;;;;;;;;;;4372918;32;19941;-82
2022/03/17 01:01:32;;;;;;;;;;;;;;;;;;4387360;32;20339;-83
2022/03/17 01:03:57;;;;;;;;;;;;;;;;;;4389005;32;20331;-83
2022/03/17 01:06:22;;;;;;;;;;;;;;;;;;4388118;32;19930;-82
2022/03/17 01:08:47;;;;;;;;;;;;;;;;;;4374402;32;19946;-83
2022/03/17 01:11:12;;;;;;;;;;;;;;;;;;4387594;32;19942;-83
2022/03/17 01:13:37;;;;;;;;;;;;;;;;;;4385805;32;19934;-82
2022/03/17 01:16:02;;;;;;;;;;;;;;;;;;4372495;32;19941;-82
2022/03/17 01:18:27;;;;;;;;;;;;;;;;;;4372648;32;20228;-82
2022/03/17 01:20:53;;;;;;;;;;;;;;;;;;4360405;32;19962;-83
2022/03/17 01:23:18;;;;;;;;;;;;;;;;;;4372877;32;19933;-81
2022/03/17 01:25:43;;;;;;;;;;;;;;;;;;4367455;32;19960;-82
2022/03/17 01:28:08;;;;;;;;;;;;;;;;;;4386533;32;19942;-82
2022/03/17 01:30:35;;;;;;;;;;;;;;;;;;4386882;32;19938;-82
2022/03/17 01:33:00;;;;;;;;;;;;;;;;;;4373192;32;20277;-82
2022/03/17 01:35:25;;;;;;;;;;;;;;;;;;4387470;32;20498;-82
2022/03/17 01:37:50;;;;;;;;;;;;;;;;;;4379080;32;20324;-82
2022/03/17 01:40:15;;;;;;;;;;;;;;;;;;4358286;32;19988;-81
2022/03/17 01:42:40;;;;;;;;;;;;;;;;;;4376909;32;20030;-81
2022/03/17 01:45:05;;;;;;;;;;;;;;;;;;4373118;32;19989;-80
2022/03/17 01:47:32;;;;;;;;;;;;;;;;;;4366767;32;19946;-80
2022/03/17 01:49:57;;;;;;;;;;;;;;;;;;4387072;32;19954;-81
2022/03/17 01:52:22;;;;;;;;;;;;;;;;;;4387135;32;19948;-80
2022/03/17 01:54:47;;;;;;;;;;;;;;;;;;4386540;32;20147;-79
2022/03/17 01:57:12;;;;;;;;;;;;;;;;;;4386857;32;20297;-80
2022/03/17 01:59:37;;;;;;;;;;;;;;;;;;4388487;32;19993;-82
2022/03/17 02:02:02;;;;;;;;;;;;;;;;;;4374438;32;20359;-81
2022/03/17 02:04:27;;;;;;;;;;;;;;;;;;4374504;32;19942;-82
2022/03/17 02:06:52;;;;;;;;;;;;;;;;;;4374771;32;19980;-81
2022/03/17 02:09:18;;;;;;;;;;;;;;;;;;4375515;32;19942;-81
2022/03/17 02:14:28;;;;;;;;;;;;;;;;;;4375694;32;20002;-80
2022/03/17 02:16:53;;;;;;;;;;;;;;;;;;4375372;32;19934;-81
2022/03/17 02:19:18;;;;;;;;;;;;;;;;;;4375776;32;20363;-81
2022/03/17 02:21:44;;;;;;;;;;;;;;;;;;4367319;32;19942;-81
2022/03/17 02:26:53;;;;;;;;;;;;;;;;;;4389645;32;19983;-81
2022/03/17 02:29:18;;;;;;;;;;;;;;;;;;4375839;32;20027;-81
2022/03/17 02:31:44;;;;;;;;;;;;;;;;;;4375345;32;20240;-81
2022/03/17 02:34:09;;;;;;;;;;;;;;;;;;4383667;32;19962;-80
2022/03/17 02:36:34;;;;;;;;;;;;;;;;;;4361417;32;19957;-80
2022/03/17 02:38:59;;;;;;;;;;;;;;;;;;4373525;32;19942;-81
2022/03/17 02:41:24;;;;;;;;;;;;;;;;;;4376096;32;20041;-81
2022/03/17 02:43:49;;;;;;;;;;;;;;;;;;4381775;32;19919;-80
2022/03/17 02:46:14;;;;;;;;;;;;;;;;;;4390398;32;19919;-81
2022/03/17 02:48:39;;;;;;;;;;;;;;;;;;4393761;32;19942;-81
2022/03/17 02:51:04;;;;;;;;;;;;;;;;;;4396849;32;20122;-81
2022/03/17 02:53:30;;;;;;;;;;;;;;;;;;4375694;32;19937;-80
2022/03/17 02:55:55;;;;;;;;;;;;;;;;;;4387941;32;19985;-81
2022/03/17 02:58:20;;;;;;;;;;;;;;;;;;4375764;32;19991;-81
2022/03/17 03:00:45;;;;;;;;;;;;;;;;;;4389798;32;19988;-80
2022/03/17 03:03:10;;;;;;;;;;;;;;;;;;4375023;32;19964;-80
2022/03/17 03:05:35;;;;;;;;;;;;;;;;;;4390314;32;19938;-81
2022/03/17 03:08:02;;;;;;;;;;;;;;;;;;4389795;32;19956;-81
2022/03/17 03:10:27;;;;;;;;;;;;;;;;;;4390264;32;19945;-81
2022/03/17 03:12:53;;;;;;;;;;;;;;;;;;4374759;32;19945;-81
2022/03/17 03:15:19;;;;;;;;;;;;;;;;;;4374742;32;19938;-81
2022/03/17 03:17:44;;;;;;;;;;;;;;;;;;4389547;32;19999;-81
2022/03/17 03:20:09;;;;;;;;;;;;;;;;;;4388568;32;20312;-80
2022/03/17 03:22:39;;;;;;;;;;;;;;;;;;4375179;32;19972;-80
2022/03/17 03:25:04;;;;;;;;;;;;;;;;;;4383564;32;19998;-81
2022/03/17 03:27:30;;;;;;;;;;;;;;;;;;4374936;32;19942;-81
2022/03/17 03:29:55;;;;;;;;;;;;;;;;;;4374235;32;19962;-81
2022/03/17 03:32:20;;;;;;;;;;;;;;;;;;4372475;32;19938;-81
2022/03/17 03:34:45;;;;;;;;;;;;;;;;;;4374202;32;19965;-82
2022/03/17 03:37:25;;;;;;;;;;;;;;;;;;4375784;32;19954;-81
2022/03/17 03:39:51;;;;;;;;;;;;;;;;;;4363157;32;19961;-81
2022/03/17 03:42:16;;;;;;;;;;;;;;;;;;4387920;32;19950;-80
2022/03/17 03:44:41;;;;;;;;;;;;;;;;;;4388158;32;19953;-81
2022/03/17 03:47:06;;;;;;;;;;;;;;;;;;4389725;32;19946;-81
2022/03/17 03:49:31;;;;;;;;;;;;;;;;;;4373935;32;20306;-81
2022/03/17 03:51:56;;;;;;;;;;;;;;;;;;4389551;32;20279;-81
2022/03/17 03:54:21;;;;;;;;;;;;;;;;;;4378351;32;19994;-80
2022/03/17 03:56:46;;;;;;;;;;;;;;;;;;4380128;32;19976;-81
2022/03/17 03:59:14;;;;;;;;;;;;;;;;;;4379662;32;20006;-83
2022/03/17 04:01:39;;;;;;;;;;;;;;;;;;4383967;32;19953;-82
2022/03/17 04:04:05;;;;;;;;;;;;;;;;;;4375101;32;19938;-82
2022/03/17 04:06:33;;;;;;;;;;;;;;;;;;4366964;32;19945;-82
2022/03/17 04:08:59;;;;;;;;;;;;;;;;;;4378595;32;19934;-84
2022/03/17 04:11:24;;;;;;;;;;;;;;;;;;4393537;32;19995;-82
2022/03/17 04:13:49;;;;;;;;;;;;;;;;;;4388953;32;20049;-82
2022/03/17 04:16:14;;;;;;;;;;;;;;;;;;4390625;32;19942;-82
2022/03/17 04:18:39;;;;;;;;;;;;;;;;;;4389005;32;19938;-82
2022/03/17 04:21:04;;;;;;;;;;;;;;;;;;4390080;32;19942;-82
2022/03/17 04:23:29;;;;;;;;;;;;;;;;;;4376987;32;20187;-83
2022/03/17 04:25:54;;;;;;;;;;;;;;;;;;4374525;32;19980;-83
2022/03/17 04:28:19;;;;;;;;;;;;;;;;;;4389214;32;19960;-84
2022/03/17 04:30:45;;;;;;;;;;;;;;;;;;4390011;32;19948;-84
2022/03/17 04:33:10;;;;;;;;;;;;;;;;;;4389013;32;19967;-84
2022/03/17 04:35:35;;;;;;;;;;;;;;;;;;4374621;32;19937;-81
2022/03/17 04:38:00;;;;;;;;;;;;;;;;;;4375022;32;19937;-84
2022/03/17 04:40:25;;;;;;;;;;;;;;;;;;4374015;32;19973;-85
2022/03/17 04:42:50;;;;;;;;;;;;;;;;;;4374811;32;19966;-81
2022/03/17 04:45:15;;;;;;;;;;;;;;;;;;4365019;32;19981;-83
2022/03/17 04:47:40;;;;;;;;;;;;;;;;;;4375492;32;19994;-83
2022/03/17 04:50:05;;;;;;;;;;;;;;;;;;4373811;32;19937;-82
2022/03/17 04:55:14;;;;;;;;;;;;;;;;;;4388602;32;19945;-84
2022/03/17 04:57:40;;;;;;;;;;;;;;;;;;4387856;32;19942;-84
2022/03/17 05:00:06;;;;;;;;;;;;;;;;;;4400770;32;19957;-85
2022/03/17 05:02:31;;;;;;;;;;;;;;;;;;4403807;32;20001;-84
2022/03/17 05:04:56;;;;;;;;;;;;;;;;;;4394519;32;19937;-84
2022/03/17 05:07:22;;;;;;;;;;;;;;;;;;4377809;32;19972;-84
2022/03/17 05:09:47;;;;;;;;;;;;;;;;;;4377131;32;19938;-84
2022/03/17 05:12:12;;;;;;;;;;;;;;;;;;4391889;32;19971;-83
2022/03/17 05:14:37;;;;;;;;;;;;;;;;;;4390952;32;20282;-84
2022/03/17 05:17:03;;;;;;;;;;;;;;;;;;4388689;32;19950;-84
2022/03/17 05:19:28;;;;;;;;;;;;;;;;;;4374309;32;19938;-83
2022/03/17 05:21:53;;;;;;;;;;;;;;;;;;4373994;32;19937;-84
2022/03/17 05:24:18;;;;;;;;;;;;;;;;;;4387206;32;19971;-83
2022/03/17 05:26:45;;;;;;;;;;;;;;;;;;4387817;32;19945;-83
2022/03/17 05:29:12;;;;;;;;;;;;;;;;;;4387095;32;19960;-82
2022/03/17 05:31:37;;;;;;;;;;;;;;;;;;4388199;32;19961;-82
2022/03/17 05:34:02;;;;;;;;;;;;;;;;;;4366980;32;20099;-81
2022/03/17 05:36:27;;;;;;;;;;;;;;;;;;4369196;32;20087;-83
2022/03/17 05:38:52;;;;;;;;;;;;;;;;;;4372040;32;19946;-82
2022/03/17 05:41:17;;;;;;;;;;;;;;;;;;4363901;32;19941;-83
2022/03/17 05:43:42;;;;;;;;;;;;;;;;;;4373148;32;19942;-83
2022/03/17 05:46:07;;;;;;;;;;;;;;;;;;4358746;32;20074;-82
2022/03/17 05:48:32;;;;;;;;;;;;;;;;;;4373270;32;19972;-81
2022/03/17 05:50:57;;;;;;;;;;;;;;;;;;4388062;32;19938;-84
2022/03/17 05:53:22;;;;;;;;;;;;;;;;;;4373560;32;19949;-84
2022/03/17 05:55:48;;;;;;;;;;;;;;;;;;4387090;32;19934;-85
2022/03/17 05:58:13;;;;;;;;;;;;;;;;;;4387891;32;20052;-83
2022/03/17 06:00:38;;;;;;;;;;;;;;;;;;4378637;32;19976;-81
2022/03/17 06:03:04;;;;;;;;;;;;;;;;;;4379350;32;19935;-81
2022/03/17 06:05:29;;;;;;;;;;;;;;;;;;4381782;32;20299;-83
2022/03/17 06:07:54;;;;;;;;;;;;;;;;;;4381006;32;19965;-81
2022/03/17 06:10:21;;;;;;;;;;;;;;;;;;4377997;32;19942;-81
2022/03/17 06:12:48;;;;;;;;;;;;;;;;;;4385100;32;19942;-82
2022/03/17 06:15:14;;;;;;;;;;;;;;;;;;4376341;32;20003;-82
2022/03/17 06:17:39;;;;;;;;;;;;;;;;;;4397335;32;19945;-81
2022/03/17 06:20:04;;;;;;;;;;;;;;;;;;4392297;32;19974;-83
2022/03/17 06:22:29;;;;;;;;;;;;;;;;;;4377143;32;20017;-81
2022/03/17 06:24:54;;;;;;;;;;;;;;;;;;4374415;32;19959;-82
2022/03/17 06:27:19;;;;;;;;;;;;;;;;;;4386931;32;19952;-82
2022/03/17 06:29:44;;;;;;;;;;;;;;;;;;4374912;32;19988;-75
2022/03/17 06:32:09;;;;;;;;;;;;;;;;;;4373976;32;20256;-83
2022/03/17 06:34:35;;;;;;;;;;;;;;;;;;4366827;32;20021;-84
2022/03/17 06:37:00;;;;;;;;;;;;;;;;;;4359155;32;19975;-83
2022/03/17 06:39:25;;;;;;;;;;;;;;;;;;4373079;32;19981;-82
2022/03/17 06:41:50;;;;;;;;;;;;;;;;;;4372676;32;19949;-82
2022/03/17 06:44:15;;;;;;;;;;;;;;;;;;4387918;32;19977;-84
2022/03/17 06:46:40;;;;;;;;;;;;;;;;;;4387810;32;19938;-84
2022/03/17 06:49:05;;;;;;;;;;;;;;;;;;4385962;32;20392;-83
2022/03/17 06:51:30;;;;;;;;;;;;;;;;;;4390462;32;19980;-83
2022/03/17 06:53:55;;;;;;;;;;;;;;;;;;4392177;32;19968;-82
2022/03/17 06:56:21;;;;;;;;;;;;;;;;;;4376783;32;19941;-83
2022/03/17 06:58:46;;;;;;;;;;;;;;;;;;4389513;32;20265;-83
2022/03/17 07:01:11;;;;;;;;;;;;;;;;;;4391856;32;19944;-84
2022/03/17 07:03:36;;;;;;;;;;;;;;;;;;4378907;32;19941;-82
2022/03/17 07:06:01;;;;;;;;;;;;;;;;;;4378415;32;20430;-82
2022/03/17 07:08:26;;;;;;;;;;;;;;;;;;4379525;32;19991;-83
2022/03/17 07:10:51;;;;;;;;;;;;;;;;;;4392308;32;19938;-83
2022/03/17 07:13:16;;;;;;;;;;;;;;;;;;4390710;32;19951;-83
2022/03/17 07:15:41;;;;;;;;;;;;;;;;;;4390514;32;19934;-83
2022/03/17 07:18:07;;;;;;;;;;;;;;;;;;4376530;32;19956;-83
2022/03/17 07:20:32;;;;;;;;;;;;;;;;;;4390254;32;19969;-84
2022/03/17 07:22:58;;;;;;;;;;;;;;;;;;4391092;32;19953;-83
2022/03/17 07:25:24;;;;;;;;;;;;;;;;;;4378533;32;19967;-84
2022/03/17 07:27:49;;;;;;;;;;;;;;;;;;4377727;32;20001;-83
2022/03/17 07:30:14;;;;;;;;;;;;;;;;;;4373603;32;19972;-83
2022/03/17 07:32:39;;;;;;;;;;;;;;;;;;4375537;32;19939;-84
2022/03/17 07:35:04;;;;;;;;;;;;;;;;;;4375539;32;20379;-84
2022/03/17 07:37:30;;;;;;;;;;;;;;;;;;4364445;32;19965;-83
2022/03/17 07:39:55;;;;;;;;;;;;;;;;;;4364482;32;20018;-83
2022/03/17 07:42:20;;;;;;;;;;;;;;;;;;4376230;32;19972;-82
2022/03/17 07:44:45;;;;;;;;;;;;;;;;;;4363133;32;19938;-85
2022/03/17 07:47:10;;;;;;;;;;;;;;;;;;4375185;32;20293;-83
2022/03/17 07:49:35;;;;;;;;;;;;;;;;;;4376212;32;20104;-82
2022/03/17 07:52:00;;;;;;;;;;;;;;;;;;4362047;32;19946;-83
2022/03/17 07:54:26;;;;;;;;;;;;;;;;;;4367172;32;20287;-83
2022/03/17 07:56:52;;;;;;;;;;;;;;;;;;4396180;32;20316;-83
2022/03/17 07:59:17;;;;;;;;;;;;;;;;;;4391316;32;19952;-83
2022/03/17 08:01:42;;;;;;;;;;;;;;;;;;4391540;32;20248;-84
2022/03/17 08:04:07;;;;;;;;;;;;;;;;;;4391075;32;19956;-83
2022/03/17 08:06:33;;;;;;;;;;;;;;;;;;4390583;32;19945;-83
2022/03/17 08:08:58;;;;;;;;;;;;;;;;;;4390626;32;19960;-84
2022/03/17 08:11:23;;;;;;;;;;;;;;;;;;4376054;32;19948;-84
2022/03/17 08:13:48;;;;;;;;;;;;;;;;;;4391398;32;19934;-83
2022/03/17 08:16:13;;;;;;;;;;;;;;;;;;4386526;32;20025;-83
2022/03/17 08:18:39;;;;;;;;;;;;;;;;;;4387382;32;19945;-83
2022/03/17 08:21:04;;;;;;;;;;;;;;;;;;4402536;32;19937;-83
2022/03/17 08:23:29;;;;;;;;;;;;;;;;;;4403946;32;19942;-83
2022/03/17 08:25:54;;;;;;;;;;;;;;;;;;4404644;32;19922;-83
2022/03/17 08:28:19;;;;;;;;;;;;;;;;;;4404672;32;19914;-82
2022/03/17 08:30:46;;;;;;;;;;;;;;;;;;4392089;32;20025;-83
2022/03/17 08:33:11;;;;;;;;;;;;;;;;;;4385723;32;19934;-83
2022/03/17 08:35:36;;;;;;;;;;;;;;;;;;4395060;32;20186;-84
2022/03/17 08:38:01;;;;;;;;;;;;;;;;;;4392029;32;19995;-83
2022/03/17 08:40:26;;;;;;;;;;;;;;;;;;4392979;32;19972;-83
2022/03/17 08:42:51;;;;;;;;;;;;;;;;;;4392368;32;19989;-82
2022/03/17 08:50:44;;;;;;;;;;;;;;;;;;4392363;32;19979;-82
2022/03/17 08:53:09;;;;;;;;;;;;;;;;;;4377367;32;19984;-83
2022/03/17 08:55:36;;;;;;;;;;;;;;;;;;4390711;32;20386;-83
2022/03/17 08:58:01;;;;;;;;;;;;;;;;;;4389477;32;19941;-84
2022/03/17 09:00:26;;;;;;;;;;;;;;;;;;4389238;32;19968;-85
2022/03/17 09:02:55;;;;;;;;;;;;;;;;;;4385232;32;20371;-83
2022/03/17 09:05:20;;;;;;;;;;;;;;;;;;4374667;32;19949;-83
2022/03/17 09:07:45;;;;;;;;;;;;;;;;;;4373842;32;19965;-83
2022/03/17 09:10:10;;;;;;;;;;;;;;;;;;4380028;32;19968;-83
2022/03/17 09:12:38;;;;;;;;;;;;;;;;;;4389160;32;20064;-82
2022/03/17 09:15:04;;;;;;;;;;;;;;;;;;4364705;32;19930;-82
2022/03/17 09:17:30;;;;;;;;;;;;;;;;;;4374160;32;19949;-81
2022/03/17 09:19:55;;;;;;;;;;;;;;;;;;4372411;32;20019;-83
2022/03/17 09:22:20;;;;;;;;;;;;;;;;;;4374770;32;19937;-82
2022/03/17 09:24:48;;;;;;;;;;;;;;;;;;4375912;32;20293;-82
2022/03/17 09:27:13;;;;;;;;;;;;;;;;;;4374091;32;19944;-82
2022/03/17 09:29:40;;;;;;;;;;;;;;;;;;4374897;32;19942;-82
2022/03/17 09:32:05;;;;;;;;;;;;;;;;;;4360817;32;19970;-83
2022/03/17 09:34:33;;;;;;;;;;;;;;;;;;4375408;32;19968;-81
2022/03/17 09:36:58;;;;;;;;;;;;;;;;;;4363233;32;19935;-83
2022/03/17 09:42:07;;;;;;;;;;;;;;;;;;4375343;32;19988;-83
2022/03/17 09:46:33;;;;;;;10.63;3.20;;;;;;;;;;4484423;31;20032;-82
2022/03/17 09:48:58;;;;;;;;;;;;;;;;;;4462913;32;20060;-82
2022/03/17 09:51:26;;;;;;;10.63;2.90;;;;;;;;;;4460900;32;20250;-83
2022/03/17 09:53:53;;;;;;;14.95;3.08;;;;;;;;;;4463075;32;20137;-81
2022/03/17 09:56:18;;;;;;;14.95;3.62;;;;;;;;;;4462258;32;20037;-83
2022/03/17 09:58:47;;;;;;;;;;;;;;;;;;4462602;32;20078;-84
2022/03/17 10:01:13;;;;;;;15.13;2.33;;;;;;;;;;4462810;32;20246;-83
2022/03/17 10:03:38;;;;;;;;;;;;;;;;;;4463153;32;20047;-83
2022/03/17 10:06:05;;;;;;;16.30;2.97;;;;;;;;;;4460799;32;20360;-82
2022/03/17 10:08:31;;;;;;;12.57;2.92;;;;;;;;;;4462350;32;20033;-82
2022/03/17 10:10:56;;;;;;;8.00;2.53;;;;;;;;;;4462281;32;20051;-83
2022/03/17 10:13:21;;;;;;;;;;;;;;;;;;4461680;32;20030;-82
2022/03/17 10:16:04;;;;;;;10.40;2.60;;;;;;;;;;4448611;32;19944;-82
2022/03/17 10:18:30;;;;;;;5.45;2.25;;;;;;;;;;4462512;32;20147;-81
2022/03/17 10:21:08;;;;;;;9.95;2.85;;;;;;;;;;4467234;32;20397;-81
2022/03/17 10:23:34;;;;;;;8.18;3.45;;;;;;;;;;4461496;32;20025;-81
2022/03/17 10:25:59;;;;;;;;;;;;;;;;;;4452934;32;20058;-82
2022/03/17 10:28:28;;;;;;;14.10;3.00;;;;;;;;;;4477478;32;19954;-83
2022/03/17 10:31:04;;;;;;;8.70;2.22;;;;;;;;;;4462744;32;20029;-81
2022/03/17 10:33:30;;;;;;;12.45;2.87;;;;;;;;;;4462906;32;20032;-82
2022/03/17 10:35:55;;;;;;;;;;;;;;;;;;4478754;32;20112;-83
2022/03/17 10:38:27;;;;;;;9.85;2.83;;;;;;;;;;4462878;32;20313;-81
2022/03/17 10:41:03;;;;;;;15.82;4.20;;;;;;;;;;4460134;32;20408;-82
2022/03/17 10:43:29;;;;;;;16.42;3.90;;;;;;;;;;4459353;32;20423;-82
2022/03/17 10:46:04;;;;;;;14.40;3.33;;;;;;;;;;4459038;32;20443;-81
2022/03/17 10:48:29;;;;;;;9.82;3.55;;;;;;;;;;4460416;32;20033;-80
2022/03/17 10:50:55;;;;;;;;;;;;;;;;;;4461046;32;20417;-81
2022/03/17 10:53:26;;;;;;;12.10;3.47;;;;;;;;;;4460728;32;19969;-81
2022/03/17 10:55:51;;;;;;;10.88;2.15;;;;;;;;;;4457532;32;20053;-81
2022/03/17 10:58:16;;;;;;;;;;;;;;;;;;4451437;32;20059;-82
2022/03/17 11:00:49;;;;;;;9.52;3.62;;;;;;;;;;4450034;32;19967;-81
2022/03/17 11:03:15;;;;;;;6.20;2.92;;;;;;;;;;4450883;32;20120;-82
2022/03/17 11:05:40;;;;;;;;;;;;;;;;;;4451686;32;20025;-82
2022/03/17 11:08:09;;;;;;;14.07;2.58;;;;;;;;;;4450767;32;19968;-82
2022/03/17 11:10:34;;;;;;;9.77;2.72;;;;;;;;;;4450214;32;20098;-82
2022/03/17 11:13:04;;;;;;;;;;;;;;;;;;4451927;32;20276;-82
2022/03/17 11:15:30;;;;;;;3.45;1.85;;;;;;;;;;4449521;32;19951;-82
2022/03/17 11:18:02;;;;;;;9.30;2.00;;;;;;;;;;4450808;32;20161;-83
2022/03/17 11:20:28;;;;;;;7.12;2.15;;;;;;;;;;4451160;32;20077;-82
2022/03/17 11:22:53;;;;;;;;;;;;;;;;;;4465468;32;20041;-82
2022/03/17 11:25:19;;;;;;;9.07;2.87;;;;;;;;;;4465350;32;19952;-83
2022/03/17 11:27:48;;;;;;;8.95;2.25;;;;;;;;;;4460418;32;20258;-83
2022/03/17 11:30:17;;;;;;;9.55;1.87;;;;;;;;;;4447608;32;20102;-83
2022/03/17 11:32:55;;;;;;;8.45;2.40;;;;;;;;;;4435810;32;20029;-82
2022/03/17 11:35:21;;;;;;;8.65;2.33;;;;;;;;;;4437329;32;20022;-81
2022/03/17 11:37:47;;;;;;;7.07;2.55;;;;;;;;;;4436634;32;20029;-82
2022/03/17 11:40:14;;;;;;;8.45;2.42;;;;;;;;;;4435856;32;20056;-83
2022/03/17 11:42:41;;;;;;;8.10;2.90;;;;;;;;;;4433859;32;20082;-82
2022/03/17 11:45:12;;;;;;;9.68;2.42;;;;;;;;;;4433991;32;20343;-80
2022/03/17 11:47:42;;;;;;;8.45;2.50;;;;;;;;;;4436271;32;20052;-81
2022/03/17 11:50:23;;;;;;;8.65;2.30;;;;;;;;;;4434931;32;20030;-83
2022/03/17 11:53:11;;;;;;;5.65;2.28;;;;;;;;;;4434712;32;20122;-81
2022/03/17 11:55:42;;;;;;;7.35;2.75;;;;;;;;;;4423775;32;20060;-81
2022/03/17 11:58:20;;;;;;;5.97;1.87;;;;;;;;;;4433550;32;20430;-82
2022/03/17 12:00:46;;;;;;;10.27;2.40;;;;;;;;;;4435043;32;20122;-82
2022/03/17 12:03:11;;;;;;;12.32;2.60;;;;;;;;;;4433005;32;20034;-84
2022/03/17 12:05:42;;;;;;;7.80;2.25;;;;;;;;;;4433993;32;20187;-81
2022/03/17 12:08:07;;;;;;;5.82;2.12;;;;;;;;;;4433096;32;20033;-81
2022/03/17 12:10:51;;;;;;;6.65;2.03;;;;;;;;;;4434082;32;20078;-82
2022/03/17 12:13:20;;;;;;;5.95;1.70;;;;;;;;;;4433773;32;20056;-82
2022/03/17 12:15:47;;;;;;;6.10;2.03;;;;;;;;;;4433927;32;20086;-81
2022/03/17 12:18:16;;;;;;;13.38;2.17;;;;;;;;;;4431700;32;20087;-81
2022/03/17 12:20:47;;;;;;;9.35;2.20;;;;;;;;;;4433561;32;20049;-83
2022/03/17 12:23:31;;;;;;;8.00;2.85;;;;;;;;;;4433732;32;20079;-81
2022/03/17 12:26:05;;;;;;;16.42;2.75;;;;;;;;;;4434041;32;20130;-83
2022/03/17 12:28:31;;;;;;;8.02;2.28;;;;;;;;;;4434235;32;20055;-82
2022/03/17 12:30:57;;;;;;;8.10;2.37;;;;;;;;;;4434090;32;20030;-83
2022/03/17 12:33:23;;;;;;;10.50;2.50;;;;;;;;;;4434360;32;20285;-83
2022/03/17 12:36:02;;;;;;;5.80;1.92;;;;;;;;;;4436947;32;20026;-82
2022/03/17 12:38:27;;;;;;;5.78;1.80;;;;;;;;;;4433899;32;20024;-81
2022/03/17 12:40:53;;;;;;;6.55;1.70;;;;;;;;;;4439394;32;20068;-80
2022/03/17 12:43:19;;;;;;;12.07;2.53;;;;;;;;;;4436503;32;20363;-82
2022/03/17 12:45:45;;;;;;;5.68;2.05;;;;;;;;;;4433731;32;20180;-82
2022/03/17 12:48:11;;;;;;;5.50;1.83;;;;;;;;;;4434204;32;20072;-81
2022/03/17 12:50:36;;;;;;;5.80;1.90;;;;;;;;;;4433371;32;20034;-82
2022/03/17 12:53:02;;;;;;;6.15;2.10;;;;;;;;;;4434726;32;20077;-82
2022/03/17 12:55:27;;;;;;;9.65;2.83;;;;;;;;;;4437767;32;20376;-82
2022/03/17 12:57:52;;;;;;;6.35;2.00;;;;;;;;;;4436162;32;20080;-82
2022/03/17 13:00:23;;;;;;;4.47;1.63;;;;;;;;;;4435968;32;20030;-81
2022/03/17 13:02:49;;;;;;;10.23;3.10;;;;;;;;;;4435755;32;20252;-81
2022/03/17 13:07:59;;;;;;;12.57;1.98;;;;;;;;;;4436174;32;20082;-80
2022/03/17 13:10:25;;;;;;;6.18;1.60;;;;;;;;;;4434921;32;20251;-82
2022/03/17 13:15:35;;;;;;;5.82;2.00;;;;;;;;;;4434325;32;20187;-82
2022/03/17 13:18:03;;;;;;;9.27;1.98;;;;;;;;;;4434370;32;20165;-83
2022/03/17 13:20:28;;;;;;;5.50;1.90;;;;;;;;;;4435626;32;20055;-82
2022/03/17 13:23:07;;;;;;;8.85;1.65;;;;;;;;;;4434151;32;20025;-82
2022/03/17 13:25:33;;;;;;;12.30;2.15;;;;;;;;;;4434723;32;20029;-81
2022/03/17 13:28:03;;;;;;;8.40;1.77;;;;;;;;;;4433132;32;20462;-81
2022/03/17 13:30:29;;;;;;;5.87;1.83;;;;;;;;;;4434741;32;20445;-81
2022/03/17 13:32:59;;;;;;;7.22;2.55;;;;;;;;;;4435030;32;20113;-80
2022/03/17 13:35:24;;;;;;;8.30;1.87;;;;;;;;;;4434307;32;20084;-80
2022/03/17 13:37:50;;;;;;;5.37;1.50;;;;;;;;;;4439162;32;20025;-81
2022/03/17 13:40:16;;;;;;;3.95;1.87;;;;;;;;;;4446320;32;20092;-80
2022/03/17 13:43:01;;;;;;;6.65;1.48;;;;;;;;;;4451708;32;20084;-80
2022/03/17 13:45:30;;;;;;;10.48;2.35;;;;;;;;;;4449799;32;20053;-80
2022/03/17 13:47:59;;;;;;;5.07;1.60;;;;;;;;;;4448702;32;20061;-81
2022/03/17 13:50:25;;;;;;;5.70;1.80;;;;;;;;;;4450400;32;20059;-82
2022/03/17 13:52:57;;;;;;;4.32;1.50;;;;;;;;;;4449034;32;20235;-82
2022/03/17 13:55:29;;;;;;;5.85;1.83;;;;;;;;;;4447802;32;20113;-80
2022/03/17 13:58:08;;;;;;;5.90;1.60;;;;;;;;;;4451276;32;20106;-80
2022/03/17 14:00:33;;;;;;;6.00;1.90;;;;;;;;;;4449631;32;20425;-79
2022/03/17 14:03:13;;;;;;;4.07;2.17;;;;;;;;;;4448436;32;20026;-79
2022/03/17 14:05:57;;;;;;;9.15;1.80;;;;;;;;;;4449894;32;20195;-80
2022/03/17 14:08:23;;;;;;;9.75;1.60;;;;;;;;;;4448328;32;20068;-80
2022/03/17 14:10:49;;;;;;;4.43;1.40;;;;;;;;;;4448760;32;20430;-80
2022/03/17 14:13:14;;;;;;;10.93;1.60;;;;;;;;;;4447286;32;20423;-80
2022/03/17 14:15:39;;;;;;;6.18;1.95;;;;;;;;;;4448723;32;20025;-80
2022/03/17 14:18:06;;;;;;;5.85;1.90;;;;;;;;;;4448242;32;20159;-80
2022/03/17 14:20:31;;;;;;;6.60;2.17;;;;;;;;;;4448499;32;20128;-79
2022/03/17 14:25:41;;;;;;;5.53;1.90;;;;;;;;;;4436432;32;20232;-79
2022/03/17 14:28:06;;;;;;;8.35;2.08;;;;;;;;;;4432710;32;20075;-80
2022/03/17 14:30:31;;;;;;;5.00;1.60;;;;;;;;;;4433298;32;20502;-79
2022/03/17 14:32:56;;;;;;;6.43;2.00;;;;;;;;;;4438534;32;20402;-80
2022/03/17 14:35:21;;;;;;;4.25;1.35;;;;;;;;;;4437358;32;20163;-80
2022/03/17 14:37:46;;;;;;;9.48;2.30;;;;;;;;;;4437171;32;20143;-80
2022/03/17 14:40:12;;;;;;;7.30;1.80;;;;;;;;;;4447198;32;20088;-80
2022/03/17 14:42:37;;;;;;;6.87;1.52;;;;;;;;;;4452039;32;20242;-81
2022/03/17 14:45:02;;;;;;;8.30;1.92;;;;;;;;;;4450839;32;20071;-80
2022/03/17 14:47:28;;;;;;;6.22;2.22;;;;;;;;;;4442334;32;20085;-80
2022/03/17 14:49:54;;;;;;;11.65;1.98;;;;;;;;;;4436135;32;20486;-80
2022/03/17 14:52:19;;;;;;;8.25;2.25;;;;;;;;;;4434835;32;20116;-81
2022/03/17 14:54:44;;;;;;;6.12;2.17;;;;;;;;;;4436768;32;20116;-81
2022/03/17 14:57:10;;;;;;;4.40;1.55;;;;;;;;;;4438715;32;20359;-81
2022/03/17 14:59:35;;;;;;;5.12;1.58;;;;;;;;;;4435977;32;20160;-81
2022/03/17 15:02:01;;;;;;;4.15;1.60;;;;;;;;;;4436495;32;20415;-81
2022/03/17 15:04:27;;;;;;;6.90;1.92;;;;;;;;;;4441052;32;20029;-80
2022/03/17 15:06:52;;;;;;;5.78;1.70;;;;;;;;;;4440447;32;20045;-82
2022/03/17 15:09:18;;;;;;;5.65;2.00;;;;;;;;;;4437482;32;20390;-81
2022/03/17 15:11:43;;;;;;;7.22;1.87;;;;;;;;;;4437122;32;20045;-81
2022/03/17 15:14:08;;;;;;;7.87;2.00;;;;;;;;;;4440047;32;20062;-79
2022/03/17 15:16:34;;;;;;;5.35;2.05;;;;;;;;;;4437335;32;20052;-80
2022/03/17 15:18:59;;;;;;;;;;;;;;;;;;4435359;32;20030;-80
2022/03/17 15:21:24;;;;;;;5.72;1.45;;;;;;;;;;4434597;32;20300;-81
2022/03/17 15:23:49;;;;;;;7.57;2.03;;;;;;;;;;4435572;32;20090;-81
2022/03/17 15:26:14;;;;;;;4.80;1.73;;;;;;;;;;4434780;32;20117;-81
2022/03/17 15:31:23;;;;;;;8.27;1.50;;;;;;;;;;4451683;32;19939;-82
2022/03/17 15:33:49;;;;;;;22.52;3.78;;;;;;;;;;4452206;32;20411;-81
2022/03/17 15:36:14;;;;;;;5.95;1.58;;;;;;;;;;4438455;32;20041;-81
2022/03/17 15:38:40;;;;;;;8.07;2.30;;;;;;;;;;4435699;32;20060;-80
2022/03/17 15:41:05;;;;;;;9.90;2.03;;;;;;;;;;4432876;32;20057;-81
2022/03/17 15:43:30;;;;;;;19.77;2.53;;;;;;;;;;4435279;32;20026;-81
2022/03/17 15:45:55;;;;;;;2.62;1.37;;;;;;;;;;4435959;32;20077;-82
2022/03/17 15:48:21;;;;;;;;;;;;;;;;;;4437201;32;20064;-81
2022/03/17 15:50:50;;;;;;;7.30;1.50;;;;;;;;;;4444820;32;19941;-80
2022/03/17 15:53:16;;;;;;;5.22;1.62;;;;;;;;;;4450120;32;20187;-81
2022/03/17 15:55:41;;;;;;;15.63;2.28;;;;;;;;;;4436098;32;20044;-82
2022/03/17 15:58:06;;;;;;;6.07;1.87;;;;;;;;;;4435204;32;20081;-83
2022/03/17 16:00:32;;;;;;;12.60;2.13;;;;;;;;;;4435206;32;20026;-83
2022/03/17 16:02:59;;;;;;;;;;;;;;;;;;4434951;32;20129;-82
2022/03/17 16:05:25;;;;;;;6.95;2.42;;;;;;;;;;4434655;32;20283;-82
2022/03/17 16:07:51;;;;;;;13.85;2.42;;;;;;;;;;4437375;32;20468;-82
2022/03/17 16:15:44;;;;;;;9.48;1.92;;;;;;;;;;4436162;32;20090;-83
2022/03/17 16:18:10;;;;;;;5.95;2.03;;;;;;;;;;4438258;32;20385;-84
2022/03/17 16:20:36;;;;;;;6.30;2.00;;;;;;;;;;4439848;32;20061;-84
2022/03/17 16:23:02;;;;;;;7.95;2.33;;;;;;;;;;4440391;32;20406;-83
2022/03/17 16:25:27;;;;;;;15.65;4.35;;;;;;;;;;4436615;32;20056;-82